CSH9113 ZSPD-ZBTJ
Flight info
| Callsign | CSH9113 |
|---|---|
| Flight time | N/A |
| Altitude | 38100 |
| Route | PIK91D PIKAS G330 PIMOL A593 DALIM W157 AVBOX AVBOX3H |
| Aircraft | B738/M-SDE2E3FGHIRWXY/LB1 |
Departure
| Time | N/A |
|---|---|
| Airport | Shanghai Pudong International Airport (ZSPD) |
Arrival
| Time | 2026-05-08 22:09 |
|---|---|
| Airport | Tianjin Binhai International Airport (ZBTJ) |
| Time | Latitude | Longitude | Altitude | Speed | Heading |
|---|---|---|---|---|---|
| 2026-05-08 21:46 | 38.34540 | 116.27156 | 36052 ft | 449 kts | 9° |
| 2026-05-08 21:47 | 38.37541 | 116.28256 | 35401 ft | 449 kts | 9° |
| 2026-05-08 21:47 | 38.40539 | 116.29360 | 34689 ft | 448 kts | 9° |
| 2026-05-08 21:47 | 38.43530 | 116.30435 | 34015 ft | 446 kts | 9° |
| 2026-05-08 21:47 | 38.46523 | 116.31486 | 33195 ft | 446 kts | 9° |
| 2026-05-08 21:48 | 38.49509 | 116.32519 | 32419 ft | 445 kts | 9° |
| 2026-05-08 21:48 | 38.52495 | 116.33546 | 31609 ft | 444 kts | 9° |
| 2026-05-08 21:48 | 38.55482 | 116.34575 | 30782 ft | 445 kts | 9° |
| 2026-05-08 21:48 | 38.58474 | 116.35608 | 29921 ft | 446 kts | 9° |
| 2026-05-08 21:49 | 38.61368 | 116.37015 | 28863 ft | 459 kts | 25° |
| 2026-05-08 21:49 | 38.63908 | 116.39526 | 27881 ft | 470 kts | 41° |
| 2026-05-08 21:49 | 38.65906 | 116.42890 | 26866 ft | 480 kts | 58° |
| 2026-05-08 21:49 | 38.67128 | 116.46887 | 25836 ft | 488 kts | 71° |
| 2026-05-08 21:50 | 38.68043 | 116.51085 | 25069 ft | 483 kts | 72° |
| 2026-05-08 21:50 | 38.68920 | 116.55213 | 24313 ft | 478 kts | 72° |
| 2026-05-08 21:50 | 38.69833 | 116.59284 | 23560 ft | 473 kts | 71° |
| 2026-05-08 21:50 | 38.70770 | 116.63305 | 22674 ft | 469 kts | 71° |
| 2026-05-08 21:51 | 38.71699 | 116.67279 | 21897 ft | 463 kts | 71° |
| 2026-05-08 21:51 | 38.72610 | 116.71213 | 21147 ft | 457 kts | 71° |
| 2026-05-08 21:51 | 38.73502 | 116.75084 | 20388 ft | 451 kts | 71° |
| 2026-05-08 21:51 | 38.74382 | 116.78914 | 19655 ft | 446 kts | 72° |
| 2026-05-08 21:52 | 38.75245 | 116.82675 | 18944 ft | 442 kts | 72° |
| 2026-05-08 21:52 | 38.76115 | 116.86473 | 18216 ft | 437 kts | 72° |
| 2026-05-08 21:52 | 38.76957 | 116.90152 | 17422 ft | 433 kts | 72° |
| 2026-05-08 21:52 | 38.77800 | 116.93840 | 16652 ft | 429 kts | 72° |
| 2026-05-08 21:53 | 38.78629 | 116.97492 | 15936 ft | 424 kts | 73° |
| 2026-05-08 21:53 | 38.78988 | 117.01228 | 15197 ft | 423 kts | 91° |
| 2026-05-08 21:53 | 38.78453 | 117.04893 | 14531 ft | 420 kts | 109° |
| 2026-05-08 21:53 | 38.77333 | 117.08328 | 13870 ft | 416 kts | 114° |
| 2026-05-08 21:54 | 38.76168 | 117.11721 | 13094 ft | 414 kts | 113° |
| 2026-05-08 21:54 | 38.75042 | 117.15101 | 12364 ft | 410 kts | 113° |
| 2026-05-08 21:54 | 38.74012 | 117.18490 | 11649 ft | 407 kts | 105° |
| 2026-05-08 21:54 | 38.73743 | 117.22057 | 10979 ft | 403 kts | 85° |
| 2026-05-08 21:55 | 38.74305 | 117.25468 | 10915 ft | 380 kts | 68° |
| 2026-05-08 21:55 | 38.75401 | 117.28465 | 10747 ft | 364 kts | 61° |
| 2026-05-08 21:55 | 38.76532 | 117.31298 | 10615 ft | 350 kts | 61° |
| 2026-05-08 21:56 | 38.78754 | 117.36591 | 10342 ft | 324 kts | 47° |
| 2026-05-08 21:56 | 38.80426 | 117.38376 | 10225 ft | 306 kts | 24° |
| 2026-05-08 21:56 | 38.82382 | 117.39198 | 10116 ft | 289 kts | 4° |
| 2026-05-08 21:56 | 38.84335 | 117.39236 | 9995 ft | 275 kts | 349° |
| 2026-05-08 21:57 | 38.86147 | 117.38601 | 9694 ft | 268 kts | 334° |
| 2026-05-08 21:57 | 38.87840 | 117.37613 | 9398 ft | 266 kts | 330° |
| 2026-05-08 21:57 | 38.89490 | 117.36556 | 9098 ft | 264 kts | 329° |
| 2026-05-08 21:57 | 38.91134 | 117.35497 | 8798 ft | 263 kts | 329° |
| 2026-05-08 21:58 | 38.92772 | 117.34455 | 8507 ft | 262 kts | 329° |
| 2026-05-08 21:58 | 38.94409 | 117.33425 | 8209 ft | 261 kts | 329° |
| 2026-05-08 21:58 | 38.96030 | 117.32411 | 7922 ft | 260 kts | 329° |
| 2026-05-08 21:58 | 38.97644 | 117.31404 | 7635 ft | 259 kts | 329° |
| 2026-05-08 21:59 | 38.99281 | 117.30383 | 7339 ft | 259 kts | 329° |
| 2026-05-08 21:59 | 39.00897 | 117.29363 | 7059 ft | 258 kts | 328° |
| 2026-05-08 21:59 | 39.02504 | 117.28341 | 6772 ft | 257 kts | 328° |
| 2026-05-08 21:59 | 39.04088 | 117.27331 | 6492 ft | 257 kts | 328° |
| 2026-05-08 22:00 | 39.05692 | 117.26309 | 6194 ft | 257 kts | 328° |
| 2026-05-08 22:00 | 39.07291 | 117.25291 | 5892 ft | 256 kts | 328° |
| 2026-05-08 22:00 | 39.08891 | 117.24272 | 5606 ft | 256 kts | 328° |
| 2026-05-08 22:00 | 39.10485 | 117.23257 | 5295 ft | 252 kts | 328° |
| 2026-05-08 22:01 | 39.12031 | 117.22273 | 5001 ft | 245 kts | 328° |
| 2026-05-08 22:01 | 39.13538 | 117.21311 | 4734 ft | 237 kts | 327° |
| 2026-05-08 22:01 | 39.14984 | 117.20388 | 4551 ft | 226 kts | 327° |
| 2026-05-08 22:01 | 39.16350 | 117.19516 | 4444 ft | 213 kts | 327° |
| 2026-05-08 22:02 | 39.17644 | 117.18689 | 4388 ft | 201 kts | 326° |
| 2026-05-08 22:02 | 39.18862 | 117.17912 | 4296 ft | 190 kts | 326° |
| 2026-05-08 22:02 | 39.20015 | 117.17173 | 4221 ft | 184 kts | 326° |
| 2026-05-08 22:02 | 39.21160 | 117.16435 | 4166 ft | 184 kts | 325° |
| 2026-05-08 22:03 | 39.22426 | 117.16036 | 4053 ft | 202 kts | 2° |
| 2026-05-08 22:03 | 39.23318 | 117.16486 | 3988 ft | 213 kts | 35° |
| 2026-05-08 22:03 | 39.24361 | 117.18663 | 3791 ft | 221 kts | 66° |
| 2026-05-08 22:03 | 39.24996 | 117.20478 | 3543 ft | 222 kts | 65° |
| 2026-05-08 22:04 | 39.25651 | 117.22273 | 3319 ft | 219 kts | 65° |
| 2026-05-08 22:04 | 39.26308 | 117.24037 | 3106 ft | 217 kts | 64° |
| 2026-05-08 22:04 | 39.26742 | 117.25192 | 2968 ft | 214 kts | 64° |
| 2026-05-08 22:04 | 39.27189 | 117.26985 | 2727 ft | 208 kts | 96° |
| 2026-05-08 22:05 | 39.26666 | 117.28567 | 2555 ft | 182 kts | 147° |
| 2026-05-08 22:05 | 39.25611 | 117.29203 | 2432 ft | 162 kts | 168° |
| 2026-05-08 22:05 | 39.24590 | 117.29835 | 2314 ft | 163 kts | 163° |
| 2026-05-08 22:05 | 39.23566 | 117.30469 | 2099 ft | 162 kts | 163° |
| 2026-05-08 22:06 | 39.22548 | 117.31093 | 1880 ft | 161 kts | 162° |
| 2026-05-08 22:06 | 39.21564 | 117.31698 | 1668 ft | 150 kts | 162° |
| 2026-05-08 22:06 | 39.20658 | 117.32255 | 1481 ft | 143 kts | 162° |
| 2026-05-08 22:06 | 39.19765 | 117.32803 | 1281 ft | 141 kts | 161° |
| 2026-05-08 22:07 | 39.18885 | 117.33345 | 1088 ft | 138 kts | 161° |
| 2026-05-08 22:07 | 39.18024 | 117.33873 | 881 ft | 138 kts | 157° |
| 2026-05-08 22:07 | 39.17166 | 117.34396 | 750 ft | 137 kts | 158° |
| 2026-05-08 22:07 | 39.16291 | 117.34947 | 479 ft | 141 kts | 155° |
| 2026-05-08 22:08 | 39.15405 | 117.35494 | 306 ft | 142 kts | 155° |
| 2026-05-08 22:08 | 39.14509 | 117.36044 | 122 ft | 143 kts | 155° |
| 2026-05-08 22:08 | 39.13619 | 117.36591 | 15 ft | 134 kts | 156° |
| 2026-05-08 22:08 | 39.12967 | 117.36987 | 16 ft | 72 kts | 155° |
| 2026-05-08 22:09 | 39.12658 | 117.37175 | 15 ft | 35 kts | 154° |
| 2026-05-08 22:09 | 39.12514 | 117.37240 | 14 ft | 21 kts | 168° |
| 2026-05-08 22:09 | 39.12369 | 117.37251 | 14 ft | 21 kts | 180° |
| 2026-05-08 22:09 | 39.12291 | 117.37226 | 16 ft | 8 kts | 227° |
| 2026-05-08 22:10 | 39.12295 | 117.37168 | 16 ft | 7 kts | 317° |
| 2026-05-08 22:10 | 39.12344 | 117.37131 | 13 ft | 9 kts | 335° |
| 2026-05-08 22:10 | 39.12401 | 117.37096 | 12 ft | 8 kts | 334° |
| 2026-05-08 22:10 | 39.12447 | 117.37068 | 11 ft | 6 kts | 334° |
| 2026-05-08 22:11 | 39.12462 | 117.37059 | 11 ft | 2 kts | 334° |
| 2026-05-08 22:11 | 39.12474 | 117.37051 | 12 ft | 2 kts | 335° |
| 2026-05-08 22:11 | 39.12486 | 117.37044 | 11 ft | 3 kts | 335° |
| 2026-05-08 22:11 | 39.12522 | 117.37021 | 11 ft | 9 kts | 333° |
| 2026-05-08 22:12 | 39.12599 | 117.36974 | 9 ft | 15 kts | 334° |
| 2026-05-08 22:12 | 39.12697 | 117.36912 | 12 ft | 16 kts | 333° |
| 2026-05-08 22:12 | 39.12795 | 117.36854 | 13 ft | 15 kts | 335° |
| 2026-05-08 22:12 | 39.12861 | 117.36800 | 14 ft | 9 kts | 292° |
| 2026-05-08 22:13 | 39.12840 | 117.36722 | 12 ft | 11 kts | 244° |
| 2026-05-08 22:13 | 39.12806 | 117.36629 | 11 ft | 12 kts | 245° |
| 2026-05-08 22:13 | 39.12766 | 117.36521 | 9 ft | 15 kts | 244° |
| 2026-05-08 22:13 | 39.12722 | 117.36403 | 12 ft | 8 kts | 244° |
| 2026-05-08 22:14 | 39.12715 | 117.36332 | 11 ft | 9 kts | 299° |
| 2026-05-08 22:14 | 39.12779 | 117.36280 | 12 ft | 12 kts | 328° |
| 2026-05-08 22:14 | 39.12838 | 117.36183 | 11 ft | 15 kts | 305° |
| 2026-05-08 22:14 | 39.12902 | 117.36068 | 13 ft | 12 kts | 306° |
| 2026-05-08 22:15 | 39.12956 | 117.36005 | 11 ft | 11 kts | 331° |
| 2026-05-08 22:15 | 39.13018 | 117.35961 | 13 ft | 8 kts | 331° |
| 2026-05-08 22:15 | 39.13042 | 117.35943 | 11 ft | 2 kts | 330° |
| 2026-05-08 22:15 | 39.13053 | 117.35934 | 12 ft | 2 kts | 330° |
| 2026-05-08 22:16 | 39.13054 | 117.35934 | 12 ft | 0 kts | 330° |